Stockton, CA

3:16 AM PDT on September 16, 2014 (GMT -0700)
Sacramento Executive | Change Station
CLOSE
Current Station
Airport
Location: Sacramento,
Elevation: 26 ft
Nearby Weather Stations

Elev 26 ft 38.51 °N, 121.50 °W | Updated 23 minutes ago

Clear
Clear
63 °F
Feels Like 63 °F
N
4
Wind Variable Wind from SSE

Today
High -- | Low -- °F
--% Chance of Precip.
Yesterday
High -- | Low -- °F
Precip. -- in
6:47 AM 7:11 PM
Waning Gibbous, 47% visible
Pressure 29.89 in
Visibility 10.0 miles
Clouds Clear
Dew Point 54 °F
Humidity 72%
Rainfall 0.00 in
Snow Depth 0 in , 0 in , 1 in
UV 0 out of 12
Pollen 6.70 out of 12
Ozone Good
PM2.5 Good
Flu Activity Not available.
METAR KSAC 160953Z AUTO 16003KT 10SM CLR 17/12 A2989 RMK AO2 SLP120 T01720122

More Conditions Fewer Conditions

Pressure 29.89 in
Visibility 10.0 miles
Clouds Clear
Dew Point 54 °F
Humidity 72%
Rainfall 0.00 in
Snow Depth 0 in , 0 in , 1 in
UV 0 out of 12
Pollen 6.70 out of 12
Ozone Good
PM2.5 Good
Flu Activity Not available.
METAR KSAC 160953Z AUTO 16003KT 10SM CLR 17/12 A2989 RMK AO2 SLP120 T01720122

More Conditions Fewer Conditions

10-Day Weather Forecast

Almanac

Astronomy

Sep. 16, 2014 Rise Set
Actual Time 6:47 AM PDT 7:11 PM PDT
Civil Twilight 6:21 AM PDT 7:37 PM PDT
Nautical Twilight 5:50 AM PDT 8:08 PM PDT
Astronomical Twilight 5:18 AM PDT 8:39 PM PDT
Moon 12:06 AM PDT 2:34 PM PDT
Length of Visible Light 13h 16m
Length of Day
12h 23m
Tomorrow will be 2m 25s shorter.
Waning Gibbous, 47% of the Moon is Illuminated
Today
Waning Gibbous
Sep 24
New
Oct 1
First Quarter
Oct 8
Full
Oct 15
Last Quarter

Today's Extremes

State Highs State Lows

Community

WunderPhotos

Upload Photos

1,753,717 photos uploaded!

WunderBlogs® & News

Nearby

Air Quality

  Air Quality AQ Index Pollutant
Yesterday Good
PM2.5
Current Good
PM2.5
Current Good
OZONE
Tuesday Good
OZONE
Wednesday Good
PM2.5
Thursday Good
OZONE
Friday Good
PM2.5
Saturday Good
PM2.5

Snow Depth

Station Depth Elevation
Monitor Pass 0 in 8350 ft
Leavitt Lake 0 in 9400 ft
Spratt Creek 1 in 6200 ft
Leavitt Meadows 0 in 7200 ft
Hagan's Meadow 1 in 8000 ft

Earthquake Activity

City Distance Mag. Time & Date
Covelo, California 163 miles 3.3 1:17 PM PDT
2014-09-14
Cobb, California 106 miles 2.7 11:07 AM PDT
2014-09-14
Minimum magnitude displayed is 2.5.

Coastal Water Temperatures

Place Temperature
San Francisco, CA 64.9 °F
Richmond, CA 68.0 °F
Port Chicago, CA 68.0 °F

Nearby Weather Stations